sensor_id;sensor_type;location;lat;lon;timestamp;P1;durP1;ratioP1;P2;durP2;ratioP2
12467;SDS011;57850;52.922;6.256;2023-11-19T00:00:24;28.23;;;12.57;;
12467;SDS011;57850;52.922;6.256;2023-11-19T00:02:51;34.80;;;12.90;;
12467;SDS011;57850;52.922;6.256;2023-11-19T00:05:18;31.45;;;11.70;;
12467;SDS011;57850;52.922;6.256;2023-11-19T00:07:46;32.17;;;12.80;;
12467;SDS011;57850;52.922;6.256;2023-11-19T00:10:13;29.25;;;8.95;;
12467;SDS011;57850;52.922;6.256;2023-11-19T00:12:45;27.60;;;9.27;;
12467;SDS011;57850;52.922;6.256;2023-11-19T00:15:13;35.47;;;9.65;;
12467;SDS011;57850;52.922;6.256;2023-11-19T00:17:40;35.40;;;10.25;;
12467;SDS011;57850;52.922;6.256;2023-11-19T00:20:09;25.92;;;7.43;;
12467;SDS011;57850;52.922;6.256;2023-11-19T00:22:37;32.08;;;6.88;;
12467;SDS011;57850;52.922;6.256;2023-11-19T00:25:04;37.88;;;8.20;;
12467;SDS011;57850;52.922;6.256;2023-11-19T00:27:32;32.95;;;6.63;;
12467;SDS011;57850;52.922;6.256;2023-11-19T00:29:58;32.72;;;8.30;;
12467;SDS011;57850;52.922;6.256;2023-11-19T00:32:25;27.95;;;7.07;;
12467;SDS011;57850;52.922;6.256;2023-11-19T00:34:51;28.08;;;6.75;;
12467;SDS011;57850;52.922;6.256;2023-11-19T00:37:17;35.50;;;6.70;;
12467;SDS011;57850;52.922;6.256;2023-11-19T00:39:44;32.50;;;6.35;;
12467;SDS011;57850;52.922;6.256;2023-11-19T00:42:12;38.33;;;6.35;;
12467;SDS011;57850;52.922;6.256;2023-11-19T00:44:39;29.10;;;5.88;;
12467;SDS011;57850;52.922;6.256;2023-11-19T00:47:06;33.55;;;5.47;;
12467;SDS011;57850;52.922;6.256;2023-11-19T00:49:33;28.17;;;5.95;;
12467;SDS011;57850;52.922;6.256;2023-11-19T00:52:00;40.38;;;6.50;;
12467;SDS011;57850;52.922;6.256;2023-11-19T00:54:27;28.75;;;6.00;;
12467;SDS011;57850;52.922;6.256;2023-11-19T00:56:54;28.25;;;5.68;;
12467;SDS011;57850;52.922;6.256;2023-11-19T00:59:22;26.55;;;5.65;;
12467;SDS011;57850;52.922;6.256;2023-11-19T01:01:49;30.85;;;6.30;;
12467;SDS011;57850;52.922;6.256;2023-11-19T01:04:16;38.63;;;6.03;;
12467;SDS011;57850;52.922;6.256;2023-11-19T01:06:43;41.53;;;6.68;;
12467;SDS011;57850;52.922;6.256;2023-11-19T01:09:10;31.52;;;5.50;;
12467;SDS011;57850;52.922;6.256;2023-11-19T01:11:36;28.48;;;5.72;;
12467;SDS011;57850;52.922;6.256;2023-11-19T01:14:04;26.65;;;5.90;;
12467;SDS011;57850;52.922;6.256;2023-11-19T01:16:32;35.97;;;6.70;;
12467;SDS011;57850;52.922;6.256;2023-11-19T01:18:58;26.33;;;5.80;;
12467;SDS011;57850;52.922;6.256;2023-11-19T01:21:29;26.63;;;4.68;;
12467;SDS011;57850;52.922;6.256;2023-11-19T01:23:56;36.75;;;6.38;;
12467;SDS011;57850;52.922;6.256;2023-11-19T01:26:23;26.10;;;6.18;;
12467;SDS011;57850;52.922;6.256;2023-11-19T01:28:49;39.08;;;6.20;;
12467;SDS011;57850;52.922;6.256;2023-11-19T01:31:18;40.35;;;6.53;;
12467;SDS011;57850;52.922;6.256;2023-11-19T01:33:46;31.20;;;6.18;;
12467;SDS011;57850;52.922;6.256;2023-11-19T01:36:13;42.08;;;7.70;;
12467;SDS011;57850;52.922;6.256;2023-11-19T01:38:40;38.15;;;6.30;;
12467;SDS011;57850;52.922;6.256;2023-11-19T01:41:06;32.40;;;5.57;;
12467;SDS011;57850;52.922;6.256;2023-11-19T01:43:34;41.85;;;6.78;;
12467;SDS011;57850;52.922;6.256;2023-11-19T01:46:01;32.45;;;5.35;;
12467;SDS011;57850;52.922;6.256;2023-11-19T01:48:28;28.10;;;6.57;;
12467;SDS011;57850;52.922;6.256;2023-11-19T01:50:57;24.92;;;5.68;;
12467;SDS011;57850;52.922;6.256;2023-11-19T01:53:23;22.30;;;5.22;;
12467;SDS011;57850;52.922;6.256;2023-11-19T01:55:51;29.67;;;6.13;;
12467;SDS011;57850;52.922;6.256;2023-11-19T01:58:18;32.58;;;6.47;;
12467;SDS011;57850;52.922;6.256;2023-11-19T02:00:45;38.38;;;7.13;;
12467;SDS011;57850;52.922;6.256;2023-11-19T02:03:12;29.90;;;5.63;;
12467;SDS011;57850;52.922;6.256;2023-11-19T02:05:40;25.35;;;6.35;;
12467;SDS011;57850;52.922;6.256;2023-11-19T02:08:08;42.10;;;8.48;;
12467;SDS011;57850;52.922;6.256;2023-11-19T02:10:35;36.70;;;6.40;;
12467;SDS011;57850;52.922;6.256;2023-11-19T02:13:01;29.38;;;5.90;;
12467;SDS011;57850;52.922;6.256;2023-11-19T02:15:30;28.55;;;5.65;;
12467;SDS011;57850;52.922;6.256;2023-11-19T02:17:57;35.45;;;6.03;;
12467;SDS011;57850;52.922;6.256;2023-11-19T02:20:23;39.83;;;6.18;;
12467;SDS011;57850;52.922;6.256;2023-11-19T02:22:51;35.80;;;5.72;;
12467;SDS011;57850;52.922;6.256;2023-11-19T02:25:22;26.35;;;5.30;;
12467;SDS011;57850;52.922;6.256;2023-11-19T02:27:57;27.40;;;6.20;;
12467;SDS011;57850;52.922;6.256;2023-11-19T02:30:26;34.67;;;5.88;;
12467;SDS011;57850;52.922;6.256;2023-11-19T02:32:53;25.33;;;5.60;;
12467;SDS011;57850;52.922;6.256;2023-11-19T02:35:22;32.20;;;5.63;;
12467;SDS011;57850;52.922;6.256;2023-11-19T02:37:49;29.73;;;6.13;;
12467;SDS011;57850;52.922;6.256;2023-11-19T02:40:15;40.17;;;6.32;;
12467;SDS011;57850;52.922;6.256;2023-11-19T02:42:42;33.92;;;6.88;;
12467;SDS011;57850;52.922;6.256;2023-11-19T02:45:10;28.50;;;5.30;;
12467;SDS011;57850;52.922;6.256;2023-11-19T02:47:39;38.58;;;7.47;;
12467;SDS011;57850;52.922;6.256;2023-11-19T02:50:07;37.40;;;6.18;;
12467;SDS011;57850;52.922;6.256;2023-11-19T02:52:39;36.60;;;5.60;;
12467;SDS011;57850;52.922;6.256;2023-11-19T02:55:06;27.33;;;4.80;;
12467;SDS011;57850;52.922;6.256;2023-11-19T02:57:34;31.83;;;6.20;;
12467;SDS011;57850;52.922;6.256;2023-11-19T03:00:01;31.92;;;5.97;;
12467;SDS011;57850;52.922;6.256;2023-11-19T03:02:38;30.88;;;5.40;;
12467;SDS011;57850;52.922;6.256;2023-11-19T03:05:10;25.80;;;5.72;;
12467;SDS011;57850;52.922;6.256;2023-11-19T03:07:37;31.10;;;6.20;;
12467;SDS011;57850;52.922;6.256;2023-11-19T03:10:03;38.25;;;6.90;;
12467;SDS011;57850;52.922;6.256;2023-11-19T03:12:31;37.80;;;6.72;;
12467;SDS011;57850;52.922;6.256;2023-11-19T03:14:58;29.55;;;5.90;;
12467;SDS011;57850;52.922;6.256;2023-11-19T03:17:24;31.25;;;6.25;;
12467;SDS011;57850;52.922;6.256;2023-11-19T03:19:53;23.90;;;5.13;;
12467;SDS011;57850;52.922;6.256;2023-11-19T03:22:19;31.58;;;5.75;;
12467;SDS011;57850;52.922;6.256;2023-11-19T03:24:46;31.45;;;6.78;;
12467;SDS011;57850;52.922;6.256;2023-11-19T03:27:13;30.15;;;6.95;;
12467;SDS011;57850;52.922;6.256;2023-11-19T03:29:39;26.48;;;5.00;;
12467;SDS011;57850;52.922;6.256;2023-11-19T03:32:06;29.73;;;6.00;;
12467;SDS011;57850;52.922;6.256;2023-11-19T03:34:33;34.70;;;6.35;;
12467;SDS011;57850;52.922;6.256;2023-11-19T03:37:01;26.08;;;6.97;;
12467;SDS011;57850;52.922;6.256;2023-11-19T03:39:28;27.50;;;6.10;;
12467;SDS011;57850;52.922;6.256;2023-11-19T03:41:55;30.05;;;5.90;;
12467;SDS011;57850;52.922;6.256;2023-11-19T03:44:21;20.52;;;6.00;;
12467;SDS011;57850;52.922;6.256;2023-11-19T03:46:48;25.17;;;5.82;;
12467;SDS011;57850;52.922;6.256;2023-11-19T03:49:15;33.55;;;6.10;;
12467;SDS011;57850;52.922;6.256;2023-11-19T03:51:41;36.78;;;5.68;;
12467;SDS011;57850;52.922;6.256;2023-11-19T03:54:09;33.20;;;7.05;;
12467;SDS011;57850;52.922;6.256;2023-11-19T03:56:36;37.53;;;6.35;;
12467;SDS011;57850;52.922;6.256;2023-11-19T03:59:03;25.33;;;6.60;;
12467;SDS011;57850;52.922;6.256;2023-11-19T04:01:30;33.15;;;6.15;;
12467;SDS011;57850;52.922;6.256;2023-11-19T04:03:56;32.83;;;5.93;;
12467;SDS011;57850;52.922;6.256;2023-11-19T04:06:25;25.50;;;6.65;;
12467;SDS011;57850;52.922;6.256;2023-11-19T04:08:52;34.08;;;6.65;;
12467;SDS011;57850;52.922;6.256;2023-11-19T04:11:20;33.45;;;5.85;;
12467;SDS011;57850;52.922;6.256;2023-11-19T04:13:46;38.08;;;6.13;;
12467;SDS011;57850;52.922;6.256;2023-11-19T04:16:13;32.85;;;6.82;;
12467;SDS011;57850;52.922;6.256;2023-11-19T04:18:40;41.92;;;6.70;;
12467;SDS011;57850;52.922;6.256;2023-11-19T04:21:07;41.10;;;8.15;;
12467;SDS011;57850;52.922;6.256;2023-11-19T04:23:34;39.00;;;7.38;;
12467;SDS011;57850;52.922;6.256;2023-11-19T04:26:01;34.10;;;6.47;;
12467;SDS011;57850;52.922;6.256;2023-11-19T04:28:30;37.15;;;7.55;;
12467;SDS011;57850;52.922;6.256;2023-11-19T04:30:57;32.40;;;7.10;;
12467;SDS011;57850;52.922;6.256;2023-11-19T04:33:23;23.17;;;5.65;;
12467;SDS011;57850;52.922;6.256;2023-11-19T04:35:50;37.30;;;7.47;;
12467;SDS011;57850;52.922;6.256;2023-11-19T04:38:17;35.42;;;6.32;;
12467;SDS011;57850;52.922;6.256;2023-11-19T04:40:43;36.63;;;6.90;;
12467;SDS011;57850;52.922;6.256;2023-11-19T04:43:10;29.30;;;5.60;;
12467;SDS011;57850;52.922;6.256;2023-11-19T04:45:39;34.22;;;6.13;;
12467;SDS011;57850;52.922;6.256;2023-11-19T04:48:06;39.20;;;7.95;;
12467;SDS011;57850;52.922;6.256;2023-11-19T04:50:34;32.20;;;6.28;;
12467;SDS011;57850;52.922;6.256;2023-11-19T04:53:00;39.35;;;5.97;;
12467;SDS011;57850;52.922;6.256;2023-11-19T04:55:28;34.22;;;6.25;;
12467;SDS011;57850;52.922;6.256;2023-11-19T04:57:54;47.35;;;8.10;;
12467;SDS011;57850;52.922;6.256;2023-11-19T05:00:21;32.15;;;6.15;;
12467;SDS011;57850;52.922;6.256;2023-11-19T05:02:49;35.38;;;6.63;;
12467;SDS011;57850;52.922;6.256;2023-11-19T05:05:16;31.45;;;5.25;;
12467;SDS011;57850;52.922;6.256;2023-11-19T05:07:43;41.25;;;7.25;;
12467;SDS011;57850;52.922;6.256;2023-11-19T05:10:10;38.97;;;7.20;;
12467;SDS011;57850;52.922;6.256;2023-11-19T05:12:37;38.97;;;6.38;;
12467;SDS011;57850;52.922;6.256;2023-11-19T05:15:04;31.77;;;6.90;;
12467;SDS011;57850;52.922;6.256;2023-11-19T05:17:31;28.52;;;6.38;;
12467;SDS011;57850;52.922;6.256;2023-11-19T05:19:59;29.67;;;6.85;;
12467;SDS011;57850;52.922;6.256;2023-11-19T05:22:26;31.30;;;5.88;;
12467;SDS011;57850;52.922;6.256;2023-11-19T05:24:52;34.03;;;7.28;;
12467;SDS011;57850;52.922;6.256;2023-11-19T05:27:21;28.67;;;8.43;;
12467;SDS011;57850;52.922;6.256;2023-11-19T05:29:48;33.75;;;6.13;;
12467;SDS011;57850;52.922;6.256;2023-11-19T05:32:15;30.98;;;5.97;;
12467;SDS011;57850;52.922;6.256;2023-11-19T05:34:42;33.33;;;6.15;;
12467;SDS011;57850;52.922;6.256;2023-11-19T05:37:10;27.77;;;7.03;;
12467;SDS011;57850;52.922;6.256;2023-11-19T05:39:36;37.67;;;7.30;;
12467;SDS011;57850;52.922;6.256;2023-11-19T05:42:03;31.98;;;6.05;;
12467;SDS011;57850;52.922;6.256;2023-11-19T05:44:30;33.30;;;6.30;;
12467;SDS011;57850;52.922;6.256;2023-11-19T05:46:56;37.35;;;7.32;;
12467;SDS011;57850;52.922;6.256;2023-11-19T05:49:23;29.10;;;6.38;;
12467;SDS011;57850;52.922;6.256;2023-11-19T05:51:50;32.30;;;6.85;;
12467;SDS011;57850;52.922;6.256;2023-11-19T05:54:20;29.35;;;5.97;;
12467;SDS011;57850;52.922;6.256;2023-11-19T05:56:47;40.65;;;6.70;;
12467;SDS011;57850;52.922;6.256;2023-11-19T05:59:14;27.50;;;6.25;;
12467;SDS011;57850;52.922;6.256;2023-11-19T06:01:43;32.60;;;6.90;;
12467;SDS011;57850;52.922;6.256;2023-11-19T06:04:09;26.80;;;6.18;;
12467;SDS011;57850;52.922;6.256;2023-11-19T06:06:36;25.45;;;5.28;;
12467;SDS011;57850;52.922;6.256;2023-11-19T06:09:04;35.95;;;6.68;;
12467;SDS011;57850;52.922;6.256;2023-11-19T06:11:33;25.70;;;7.50;;
12467;SDS011;57850;52.922;6.256;2023-11-19T06:14:01;30.63;;;6.82;;
12467;SDS011;57850;52.922;6.256;2023-11-19T06:16:30;33.53;;;7.22;;
12467;SDS011;57850;52.922;6.256;2023-11-19T06:18:57;31.52;;;4.85;;
12467;SDS011;57850;52.922;6.256;2023-11-19T06:21:23;33.58;;;6.05;;
12467;SDS011;57850;52.922;6.256;2023-11-19T06:23:51;33.35;;;6.57;;
12467;SDS011;57850;52.922;6.256;2023-11-19T06:26:18;30.35;;;6.05;;
12467;SDS011;57850;52.922;6.256;2023-11-19T06:28:46;29.33;;;5.72;;
12467;SDS011;57850;52.922;6.256;2023-11-19T06:31:13;30.02;;;5.57;;
12467;SDS011;57850;52.922;6.256;2023-11-19T06:33:41;30.40;;;5.63;;
12467;SDS011;57850;52.922;6.256;2023-11-19T06:36:08;26.80;;;5.68;;
12467;SDS011;57850;52.922;6.256;2023-11-19T06:38:35;38.75;;;8.25;;
12467;SDS011;57850;52.922;6.256;2023-11-19T06:41:01;30.08;;;6.85;;
12467;SDS011;57850;52.922;6.256;2023-11-19T06:43:32;28.08;;;5.10;;
12467;SDS011;57850;52.922;6.256;2023-11-19T06:46:00;37.85;;;6.50;;
12467;SDS011;57850;52.922;6.256;2023-11-19T06:48:26;34.97;;;6.97;;
12467;SDS011;57850;52.922;6.256;2023-11-19T06:50:53;35.78;;;5.72;;
12467;SDS011;57850;52.922;6.256;2023-11-19T06:53:20;33.42;;;6.30;;
12467;SDS011;57850;52.922;6.256;2023-11-19T06:55:46;34.38;;;5.68;;
12467;SDS011;57850;52.922;6.256;2023-11-19T06:58:13;28.95;;;6.15;;
12467;SDS011;57850;52.922;6.256;2023-11-19T07:00:39;32.08;;;6.30;;
12467;SDS011;57850;52.922;6.256;2023-11-19T07:03:07;34.42;;;7.25;;
12467;SDS011;57850;52.922;6.256;2023-11-19T07:05:35;27.80;;;5.05;;
12467;SDS011;57850;52.922;6.256;2023-11-19T07:08:03;25.25;;;5.88;;
12467;SDS011;57850;52.922;6.256;2023-11-19T07:10:30;25.33;;;5.43;;
12467;SDS011;57850;52.922;6.256;2023-11-19T07:12:56;22.63;;;6.85;;
12467;SDS011;57850;52.922;6.256;2023-11-19T07:15:23;30.27;;;6.88;;
12467;SDS011;57850;52.922;6.256;2023-11-19T07:17:50;36.38;;;6.10;;
12467;SDS011;57850;52.922;6.256;2023-11-19T07:20:18;33.63;;;5.78;;
12467;SDS011;57850;52.922;6.256;2023-11-19T07:22:44;29.98;;;6.20;;
12467;SDS011;57850;52.922;6.256;2023-11-19T07:25:12;28.15;;;6.07;;
12467;SDS011;57850;52.922;6.256;2023-11-19T07:27:39;31.35;;;6.53;;
12467;SDS011;57850;52.922;6.256;2023-11-19T07:30:06;32.95;;;5.82;;
12467;SDS011;57850;52.922;6.256;2023-11-19T07:32:33;31.45;;;6.45;;
12467;SDS011;57850;52.922;6.256;2023-11-19T07:34:59;30.83;;;6.68;;
12467;SDS011;57850;52.922;6.256;2023-11-19T07:37:27;34.05;;;5.47;;
12467;SDS011;57850;52.922;6.256;2023-11-19T07:39:54;25.05;;;5.47;;
12467;SDS011;57850;52.922;6.256;2023-11-19T07:42:21;21.40;;;5.82;;
12467;SDS011;57850;52.922;6.256;2023-11-19T07:44:48;25.83;;;6.15;;
12467;SDS011;57850;52.922;6.256;2023-11-19T07:47:15;29.25;;;6.70;;
12467;SDS011;57850;52.922;6.256;2023-11-19T07:49:42;25.15;;;5.53;;
12467;SDS011;57850;52.922;6.256;2023-11-19T07:52:08;30.58;;;6.00;;
12467;SDS011;57850;52.922;6.256;2023-11-19T07:54:36;29.92;;;5.20;;
12467;SDS011;57850;52.922;6.256;2023-11-19T07:57:03;27.40;;;6.03;;
12467;SDS011;57850;52.922;6.256;2023-11-19T07:59:30;26.42;;;6.00;;
12467;SDS011;57850;52.922;6.256;2023-11-19T08:01:56;37.60;;;6.10;;
12467;SDS011;57850;52.922;6.256;2023-11-19T08:04:23;26.23;;;5.50;;
12467;SDS011;57850;52.922;6.256;2023-11-19T08:06:50;27.77;;;5.75;;
12467;SDS011;57850;52.922;6.256;2023-11-19T08:09:17;25.30;;;5.88;;
12467;SDS011;57850;52.922;6.256;2023-11-19T08:11:45;30.67;;;5.85;;
12467;SDS011;57850;52.922;6.256;2023-11-19T08:14:11;33.70;;;6.80;;
12467;SDS011;57850;52.922;6.256;2023-11-19T08:16:38;34.60;;;6.80;;
12467;SDS011;57850;52.922;6.256;2023-11-19T08:19:05;27.73;;;6.00;;
12467;SDS011;57850;52.922;6.256;2023-11-19T08:21:33;32.70;;;6.93;;
12467;SDS011;57850;52.922;6.256;2023-11-19T08:24:00;31.20;;;6.22;;
12467;SDS011;57850;52.922;6.256;2023-11-19T08:26:26;32.15;;;6.00;;
12467;SDS011;57850;52.922;6.256;2023-11-19T08:28:54;24.92;;;6.15;;
12467;SDS011;57850;52.922;6.256;2023-11-19T08:31:24;30.35;;;7.03;;
12467;SDS011;57850;52.922;6.256;2023-11-19T08:33:50;39.67;;;6.13;;
12467;SDS011;57850;52.922;6.256;2023-11-19T08:36:17;24.58;;;5.47;;
12467;SDS011;57850;52.922;6.256;2023-11-19T08:38:44;27.02;;;5.40;;
12467;SDS011;57850;52.922;6.256;2023-11-19T08:41:11;32.13;;;6.25;;
12467;SDS011;57850;52.922;6.256;2023-11-19T08:43:38;33.85;;;6.10;;
12467;SDS011;57850;52.922;6.256;2023-11-19T08:46:10;36.72;;;7.70;;
12467;SDS011;57850;52.922;6.256;2023-11-19T08:48:37;27.30;;;5.80;;
12467;SDS011;57850;52.922;6.256;2023-11-19T08:51:03;38.83;;;6.43;;
12467;SDS011;57850;52.922;6.256;2023-11-19T08:53:30;27.05;;;6.18;;
12467;SDS011;57850;52.922;6.256;2023-11-19T08:55:57;36.03;;;6.15;;
12467;SDS011;57850;52.922;6.256;2023-11-19T08:58:24;30.60;;;6.15;;
12467;SDS011;57850;52.922;6.256;2023-11-19T09:00:50;36.38;;;6.25;;
12467;SDS011;57850;52.922;6.256;2023-11-19T09:03:18;27.80;;;6.25;;
12467;SDS011;57850;52.922;6.256;2023-11-19T09:05:45;26.88;;;6.30;;
12467;SDS011;57850;52.922;6.256;2023-11-19T09:08:12;37.40;;;6.85;;
12467;SDS011;57850;52.922;6.256;2023-11-19T09:10:38;34.83;;;5.97;;
12467;SDS011;57850;52.922;6.256;2023-11-19T09:13:05;31.75;;;5.55;;
12467;SDS011;57850;52.922;6.256;2023-11-19T09:15:31;28.52;;;6.65;;
12467;SDS011;57850;52.922;6.256;2023-11-19T09:17:58;28.88;;;5.68;;
12467;SDS011;57850;52.922;6.256;2023-11-19T09:20:26;34.75;;;7.05;;
12467;SDS011;57850;52.922;6.256;2023-11-19T09:22:52;28.45;;;5.80;;
12467;SDS011;57850;52.922;6.256;2023-11-19T09:25:19;35.67;;;7.30;;
12467;SDS011;57850;52.922;6.256;2023-11-19T09:27:46;38.92;;;6.90;;
12467;SDS011;57850;52.922;6.256;2023-11-19T09:30:13;30.08;;;6.35;;
12467;SDS011;57850;52.922;6.256;2023-11-19T09:32:40;31.05;;;6.32;;
12467;SDS011;57850;52.922;6.256;2023-11-19T09:35:06;38.83;;;6.68;;
12467;SDS011;57850;52.922;6.256;2023-11-19T09:37:35;32.28;;;7.28;;
12467;SDS011;57850;52.922;6.256;2023-11-19T09:40:02;35.03;;;7.18;;
12467;SDS011;57850;52.922;6.256;2023-11-19T09:42:29;35.95;;;6.22;;
12467;SDS011;57850;52.922;6.256;2023-11-19T09:45:02;30.52;;;5.63;;
12467;SDS011;57850;52.922;6.256;2023-11-19T09:47:38;35.88;;;6.88;;
12467;SDS011;57850;52.922;6.256;2023-11-19T09:50:05;28.55;;;6.10;;
12467;SDS011;57850;52.922;6.256;2023-11-19T09:52:34;23.77;;;5.25;;
12467;SDS011;57850;52.922;6.256;2023-11-19T09:55:01;28.30;;;4.68;;
12467;SDS011;57850;52.922;6.256;2023-11-19T09:57:27;33.33;;;6.63;;
12467;SDS011;57850;52.922;6.256;2023-11-19T09:59:58;31.38;;;6.80;;
12467;SDS011;57850;52.922;6.256;2023-11-19T10:02:25;29.00;;;5.53;;
12467;SDS011;57850;52.922;6.256;2023-11-19T10:04:53;33.15;;;5.97;;
12467;SDS011;57850;52.922;6.256;2023-11-19T10:07:21;27.60;;;5.53;;
12467;SDS011;57850;52.922;6.256;2023-11-19T10:09:49;28.98;;;6.22;;
12467;SDS011;57850;52.922;6.256;2023-11-19T10:12:16;33.28;;;6.28;;
12467;SDS011;57850;52.922;6.256;2023-11-19T10:14:42;31.48;;;6.18;;
12467;SDS011;57850;52.922;6.256;2023-11-19T10:17:10;34.40;;;6.47;;
12467;SDS011;57850;52.922;6.256;2023-11-19T10:19:36;23.77;;;5.32;;
12467;SDS011;57850;52.922;6.256;2023-11-19T10:22:06;27.40;;;6.47;;
12467;SDS011;57850;52.922;6.256;2023-11-19T10:24:34;20.83;;;5.43;;
12467;SDS011;57850;52.922;6.256;2023-11-19T10:27:04;39.97;;;5.85;;
12467;SDS011;57850;52.922;6.256;2023-11-19T10:29:35;26.58;;;4.93;;
12467;SDS011;57850;52.922;6.256;2023-11-19T10:32:02;29.80;;;6.30;;
12467;SDS011;57850;52.922;6.256;2023-11-19T10:34:30;29.02;;;5.13;;
12467;SDS011;57850;52.922;6.256;2023-11-19T10:36:56;31.27;;;5.18;;
12467;SDS011;57850;52.922;6.256;2023-11-19T10:39:23;33.83;;;6.55;;
12467;SDS011;57850;52.922;6.256;2023-11-19T10:41:51;27.15;;;5.47;;
12467;SDS011;57850;52.922;6.256;2023-11-19T10:47:07;28.13;;;6.15;;
12467;SDS011;57850;52.922;6.256;2023-11-19T10:49:35;20.40;;;4.97;;
12467;SDS011;57850;52.922;6.256;2023-11-19T10:52:03;30.20;;;6.18;;
12467;SDS011;57850;52.922;6.256;2023-11-19T10:54:32;32.40;;;5.55;;
12467;SDS011;57850;52.922;6.256;2023-11-19T10:57:01;28.38;;;5.75;;
12467;SDS011;57850;52.922;6.256;2023-11-19T10:59:29;35.13;;;5.45;;
12467;SDS011;57850;52.922;6.256;2023-11-19T11:01:58;28.63;;;5.32;;
12467;SDS011;57850;52.922;6.256;2023-11-19T11:04:30;32.47;;;6.35;;
12467;SDS011;57850;52.922;6.256;2023-11-19T11:07:06;27.35;;;5.63;;
12467;SDS011;57850;52.922;6.256;2023-11-19T11:09:35;28.20;;;5.28;;
12467;SDS011;57850;52.922;6.256;2023-11-19T11:12:02;30.67;;;6.15;;
12467;SDS011;57850;52.922;6.256;2023-11-19T11:14:32;27.13;;;5.47;;
12467;SDS011;57850;52.922;6.256;2023-11-19T11:17:04;32.42;;;6.05;;
12467;SDS011;57850;52.922;6.256;2023-11-19T11:19:32;24.55;;;5.88;;
12467;SDS011;57850;52.922;6.256;2023-11-19T11:22:00;37.85;;;5.28;;
12467;SDS011;57850;52.922;6.256;2023-11-19T11:24:45;30.38;;;6.10;;
12467;SDS011;57850;52.922;6.256;2023-11-19T11:27:47;31.10;;;4.85;;
12467;SDS011;57850;52.922;6.256;2023-11-19T11:30:25;30.98;;;5.20;;
12467;SDS011;57850;52.922;6.256;2023-11-19T11:33:03;28.48;;;6.80;;
12467;SDS011;57850;52.922;6.256;2023-11-19T11:35:43;28.77;;;6.18;;
12467;SDS011;57850;52.922;6.256;2023-11-19T11:43:44;33.45;;;5.63;;
12467;SDS011;57850;52.922;6.256;2023-11-19T11:46:15;35.03;;;6.30;;
12467;SDS011;57850;52.922;6.256;2023-11-19T11:49:26;27.25;;;4.88;;
12467;SDS011;57850;52.922;6.256;2023-11-19T11:51:58;28.35;;;6.78;;
12467;SDS011;57850;52.922;6.256;2023-11-19T11:54:25;33.72;;;5.65;;
12467;SDS011;57850;52.922;6.256;2023-11-19T11:57:00;27.23;;;6.00;;
12467;SDS011;57850;52.922;6.256;2023-11-19T11:59:31;24.67;;;5.78;;
12467;SDS011;57850;52.922;6.256;2023-11-19T12:02:03;26.67;;;5.68;;
12467;SDS011;57850;52.922;6.256;2023-11-19T12:04:31;36.20;;;5.70;;
12467;SDS011;57850;52.922;6.256;2023-11-19T12:07:04;24.50;;;5.65;;
12467;SDS011;57850;52.922;6.256;2023-11-19T12:09:31;29.58;;;6.25;;
12467;SDS011;57850;52.922;6.256;2023-11-19T12:12:17;30.35;;;6.20;;
12467;SDS011;57850;52.922;6.256;2023-11-19T12:15:01;31.20;;;5.30;;
12467;SDS011;57850;52.922;6.256;2023-11-19T12:17:42;31.73;;;5.30;;
12467;SDS011;57850;52.922;6.256;2023-11-19T12:20:15;27.35;;;4.93;;
12467;SDS011;57850;52.922;6.256;2023-11-19T12:22:43;32.13;;;4.93;;
12467;SDS011;57850;52.922;6.256;2023-11-19T12:25:11;29.70;;;5.47;;
12467;SDS011;57850;52.922;6.256;2023-11-19T12:27:39;27.77;;;5.53;;
12467;SDS011;57850;52.922;6.256;2023-11-19T12:30:07;24.17;;;4.70;;
12467;SDS011;57850;52.922;6.256;2023-11-19T12:32:38;22.52;;;4.30;;
12467;SDS011;57850;52.922;6.256;2023-11-19T12:35:06;24.50;;;4.50;;
12467;SDS011;57850;52.922;6.256;2023-11-19T12:37:40;37.08;;;5.88;;
12467;SDS011;57850;52.922;6.256;2023-11-19T12:40:11;27.17;;;6.35;;
12467;SDS011;57850;52.922;6.256;2023-11-19T12:42:39;29.02;;;5.55;;
12467;SDS011;57850;52.922;6.256;2023-11-19T12:45:06;20.92;;;5.72;;
12467;SDS011;57850;52.922;6.256;2023-11-19T12:47:34;31.95;;;5.20;;
12467;SDS011;57850;52.922;6.256;2023-11-19T12:50:00;20.27;;;5.70;;
12467;SDS011;57850;52.922;6.256;2023-11-19T12:52:27;31.70;;;6.38;;
12467;SDS011;57850;52.922;6.256;2023-11-19T12:54:55;29.27;;;6.57;;
12467;SDS011;57850;52.922;6.256;2023-11-19T12:57:35;24.98;;;5.95;;
12467;SDS011;57850;52.922;6.256;2023-11-19T13:00:02;22.70;;;5.47;;
12467;SDS011;57850;52.922;6.256;2023-11-19T13:02:44;21.42;;;4.38;;
12467;SDS011;57850;52.922;6.256;2023-11-19T13:05:27;20.90;;;4.85;;
12467;SDS011;57850;52.922;6.256;2023-11-19T13:08:03;21.17;;;4.90;;
12467;SDS011;57850;52.922;6.256;2023-11-19T13:10:32;20.10;;;4.38;;
12467;SDS011;57850;52.922;6.256;2023-11-19T13:13:03;22.80;;;4.40;;
12467;SDS011;57850;52.922;6.256;2023-11-19T13:15:31;21.73;;;4.50;;
12467;SDS011;57850;52.922;6.256;2023-11-19T13:17:58;31.00;;;6.03;;
12467;SDS011;57850;52.922;6.256;2023-11-19T13:20:25;22.75;;;4.57;;
12467;SDS011;57850;52.922;6.256;2023-11-19T13:22:55;27.65;;;5.55;;
12467;SDS011;57850;52.922;6.256;2023-11-19T13:25:22;27.00;;;5.63;;
12467;SDS011;57850;52.922;6.256;2023-11-19T13:27:50;27.30;;;5.05;;
12467;SDS011;57850;52.922;6.256;2023-11-19T13:30:17;23.27;;;4.93;;
12467;SDS011;57850;52.922;6.256;2023-11-19T13:32:44;30.20;;;4.68;;
12467;SDS011;57850;52.922;6.256;2023-11-19T13:35:11;25.30;;;5.57;;
12467;SDS011;57850;52.922;6.256;2023-11-19T13:37:38;31.48;;;4.93;;
12467;SDS011;57850;52.922;6.256;2023-11-19T13:40:05;23.50;;;5.30;;
12467;SDS011;57850;52.922;6.256;2023-11-19T13:42:34;25.77;;;4.32;;
12467;SDS011;57850;52.922;6.256;2023-11-19T13:45:03;26.67;;;5.10;;
12467;SDS011;57850;52.922;6.256;2023-11-19T13:47:30;27.10;;;5.65;;
12467;SDS011;57850;52.922;6.256;2023-11-19T13:49:57;25.60;;;4.28;;
12467;SDS011;57850;52.922;6.256;2023-11-19T13:52:24;26.83;;;5.82;;
12467;SDS011;57850;52.922;6.256;2023-11-19T13:54:50;24.60;;;5.28;;
12467;SDS011;57850;52.922;6.256;2023-11-19T13:57:17;26.38;;;4.68;;
12467;SDS011;57850;52.922;6.256;2023-11-19T13:59:43;20.77;;;4.20;;
12467;SDS011;57850;52.922;6.256;2023-11-19T14:02:12;25.05;;;4.57;;
12467;SDS011;57850;52.922;6.256;2023-11-19T14:04:38;25.75;;;5.38;;
12467;SDS011;57850;52.922;6.256;2023-11-19T14:07:05;19.13;;;5.25;;
12467;SDS011;57850;52.922;6.256;2023-11-19T14:09:31;22.80;;;4.85;;
12467;SDS011;57850;52.922;6.256;2023-11-19T14:11:58;17.63;;;4.55;;
12467;SDS011;57850;52.922;6.256;2023-11-19T14:14:25;22.48;;;6.25;;
12467;SDS011;57850;52.922;6.256;2023-11-19T14:16:51;31.58;;;5.63;;
12467;SDS011;57850;52.922;6.256;2023-11-19T14:19:19;28.95;;;5.28;;
12467;SDS011;57850;52.922;6.256;2023-11-19T14:21:46;21.77;;;3.97;;
12467;SDS011;57850;52.922;6.256;2023-11-19T14:24:12;24.60;;;4.00;;
12467;SDS011;57850;52.922;6.256;2023-11-19T14:26:40;22.33;;;4.93;;
12467;SDS011;57850;52.922;6.256;2023-11-19T14:29:06;21.58;;;4.35;;
12467;SDS011;57850;52.922;6.256;2023-11-19T14:31:32;23.50;;;4.10;;
12467;SDS011;57850;52.922;6.256;2023-11-19T14:34:00;30.35;;;8.57;;
12467;SDS011;57850;52.922;6.256;2023-11-19T14:36:28;20.13;;;4.03;;
12467;SDS011;57850;52.922;6.256;2023-11-19T14:38:55;20.10;;;5.63;;
12467;SDS011;57850;52.922;6.256;2023-11-19T14:41:23;21.20;;;4.85;;
12467;SDS011;57850;52.922;6.256;2023-11-19T14:43:49;22.50;;;3.97;;
12467;SDS011;57850;52.922;6.256;2023-11-19T14:46:16;20.08;;;5.13;;